Time;durP1;ratioP1;P1;durP2;ratioP2;P2;SDS_P1;SDS_P2;PMS_P1;PMS_P2;Temp;Humidity;BMP_temperature;BMP_pressure;BME280_temperature;BME280_humidity;BME280_pressure;Samples;Min_cycle;Max_cycle;Signal;HPM_P1;HPM_P2
2023/04/15 00:00:37;;;;;;;;;12.00;9.00;21.20;38.80;;;;;;111329;1241;55292;-61
2023/04/15 00:03:14;;;;;;;;;10.75;8.75;21.10;38.70;;;;;;111207;1241;53415;-61
2023/04/15 00:05:41;;;;;;;;;11.00;10.00;21.10;38.70;;;;;;111287;1241;49562;-61
2023/04/15 00:08:08;;;;;;;;;11.00;9.00;21.10;38.70;;;;;;111196;1240;49092;-61
2023/04/15 00:10:35;;;;;;;;;13.25;10.00;21.10;38.60;;;;;;111223;1241;45150;-61
2023/04/15 00:13:03;;;;;;;;;12.00;10.00;21.10;38.70;;;;;;111184;1241;54136;-61
2023/04/15 00:15:30;;;;;;;;;12.00;10.00;21.10;38.90;;;;;;111246;1241;53575;-60
2023/04/15 00:17:57;;;;;;;;;11.75;10.00;21.10;38.70;;;;;;111215;1243;50412;-60
2023/04/15 00:20:24;;;;;;;;;11.00;9.50;21.10;38.60;;;;;;111229;1244;48907;-61
2023/04/15 00:22:52;;;;;;;;;12.25;10.75;21.10;38.60;;;;;;111193;1240;44876;-60
2023/04/15 00:25:19;;;;;;;;;13.75;10.75;21.10;38.70;;;;;;111280;1244;54293;-61
2023/04/15 00:27:46;;;;;;;;;12.00;10.00;21.10;38.70;;;;;;111374;1244;53412;-60
2023/04/15 00:30:13;;;;;;;;;11.50;9.75;21.10;38.60;;;;;;111289;1241;50363;-60
2023/04/15 00:32:41;;;;;;;;;13.50;10.75;21.10;38.60;;;;;;111203;1241;49621;-61
2023/04/15 00:35:08;;;;;;;;;10.25;9.00;21.10;38.70;;;;;;111243;1244;45213;-61
2023/04/15 00:37:35;;;;;;;;;14.50;11.00;21.00;38.60;;;;;;111214;1244;54617;-61
2023/04/15 00:40:05;;;;;;;;;11.00;9.33;21.00;38.60;;;;;;111194;1244;54413;-60
2023/04/15 00:42:33;;;;;;;;;13.75;10.75;21.00;38.60;;;;;;111243;1243;49977;-60
2023/04/15 00:45:00;;;;;;;;;10.00;8.75;21.00;38.50;;;;;;111193;1241;49761;-60
2023/04/15 00:47:28;;;;;;;;;12.33;11.00;21.00;38.60;;;;;;111209;1239;45761;-61
2023/04/15 00:49:55;;;;;;;;;11.33;10.00;21.00;38.50;;;;;;111017;1241;54884;-61
2023/04/15 00:52:22;;;;;;;;;11.00;9.67;21.00;38.50;;;;;;111231;1240;54909;-61
2023/04/15 00:54:51;;;;;;;;;11.75;10.75;21.00;38.50;;;;;;111300;1244;49522;-60
2023/04/15 00:57:20;;;;;;;;;11.00;9.75;21.00;38.50;;;;;;111352;1239;50474;-61
2023/04/15 00:59:48;;;;;;;;;11.00;9.75;21.00;38.50;;;;;;111301;1244;44610;-60
2023/04/15 01:02:15;;;;;;;;;11.75;10.00;21.00;38.50;;;;;;111207;1240;54626;-60
2023/04/15 01:04:42;;;;;;;;;11.00;9.00;21.00;38.50;;;;;;111048;1244;53776;-62
2023/04/15 01:07:09;;;;;;;;;13.00;10.75;21.00;38.50;;;;;;111236;1244;50312;-61
2023/04/15 01:09:36;;;;;;;;;12.00;11.00;21.00;38.70;;;;;;111237;1244;49692;-61
2023/04/15 01:12:03;;;;;;;;;11.00;9.50;21.00;38.50;;;;;;111281;1240;44899;-61
2023/04/15 01:14:32;;;;;;;;;13.75;10.50;21.00;38.50;;;;;;111307;1241;55512;-61
2023/04/15 01:16:59;;;;;;;;;11.25;10.00;21.00;38.60;;;;;;111232;1244;54107;-59
2023/04/15 01:19:27;;;;;;;;;13.00;10.00;20.90;38.50;;;;;;111288;1241;49882;-60
2023/04/15 01:21:55;;;;;;;;;10.50;9.00;20.90;38.40;;;;;;111222;1244;49043;-63
2023/04/15 01:24:23;;;;;;;;;11.00;9.75;20.90;38.40;;;;;;111296;1244;44344;-61
2023/04/15 01:26:50;;;;;;;;;14.33;12.00;20.90;38.70;;;;;;111209;1244;55134;-61
2023/04/15 01:29:18;;;;;;;;;10.25;9.00;20.90;38.50;;;;;;111269;1243;53463;-59
2023/04/15 01:31:52;;;;;;;;;11.00;10.00;20.90;38.40;;;;;;111309;1244;49891;-61
2023/04/15 01:34:21;;;;;;;;;12.50;11.00;20.90;38.50;;;;;;111312;1244;49953;-61
2023/04/15 01:36:48;;;;;;;;;11.00;9.00;20.90;38.50;;;;;;111241;1240;44524;-60
2023/04/15 01:39:15;;;;;;;;;10.75;9.00;20.90;38.70;;;;;;111283;1243;54830;-60
2023/04/15 01:41:41;;;;;;;;;12.00;10.25;20.90;38.50;;;;;;111057;1241;53636;-65
2023/04/15 01:44:08;;;;;;;;;11.67;10.67;20.80;38.40;;;;;;111210;1244;49546;-62
2023/04/15 01:46:36;;;;;;;;;10.67;9.67;20.80;38.40;;;;;;111162;1241;49741;-60
2023/04/15 01:49:03;;;;;;;;;12.33;9.00;20.80;38.00;;;;;;111180;1244;44735;-62
2023/04/15 01:51:30;;;;;;;;;10.67;9.00;20.80;38.40;;;;;;111224;1244;54356;-60
2023/04/15 01:53:57;;;;;;;;;10.25;9.00;20.80;38.40;;;;;;111207;1239;54905;-61
2023/04/15 01:56:25;;;;;;;;;11.00;10.00;20.80;38.40;;;;;;111225;1240;49173;-61
2023/04/15 01:58:52;;;;;;;;;12.00;11.00;20.80;38.60;;;;;;111236;1244;48824;-61
2023/04/15 02:01:19;;;;;;;;;10.50;9.00;20.80;38.60;;;;;;111298;1239;44706;-61
2023/04/15 02:03:46;;;;;;;;;12.00;10.50;20.80;38.40;;;;;;111266;1244;54890;-60
2023/04/15 02:06:14;;;;;;;;;11.75;10.00;20.80;38.40;;;;;;111244;1241;53609;-60
2023/04/15 02:08:40;;;;;;;;;11.25;9.75;20.80;38.50;;;;;;111226;1241;50788;-60
2023/04/15 02:11:08;;;;;;;;;10.75;9.75;20.80;38.40;;;;;;111206;1245;49429;-60
2023/04/15 02:13:35;;;;;;;;;12.00;10.50;20.80;38.40;;;;;;111230;1244;45894;-60
2023/04/15 02:16:02;;;;;;;;;11.00;10.00;20.70;38.30;;;;;;111345;1244;55875;-62
2023/04/15 02:18:29;;;;;;;;;10.00;9.00;20.80;38.40;;;;;;111201;1241;54992;-60
2023/04/15 02:20:57;;;;;;;;;10.00;9.00;20.80;38.40;;;;;;111178;1241;48931;-60
2023/04/15 02:23:24;;;;;;;;;12.00;10.25;20.70;38.30;;;;;;111229;1244;49729;-61
2023/04/15 02:25:51;;;;;;;;;11.75;10.50;20.70;38.30;;;;;;111244;1244;45025;-59
2023/04/15 02:28:18;;;;;;;;;10.67;9.67;20.70;38.40;;;;;;111260;1240;54668;-61
2023/04/15 02:30:47;;;;;;;;;9.75;8.25;20.70;38.30;;;;;;111233;1243;54238;-61
2023/04/15 02:33:15;;;;;;;;;13.75;12.00;20.70;38.30;;;;;;111243;1244;49361;-61
2023/04/15 02:35:44;;;;;;;;;10.00;8.75;20.70;38.50;;;;;;111289;1244;49842;-61
2023/04/15 02:38:11;;;;;;;;;10.75;9.50;20.70;38.40;;;;;;111240;1244;45216;-60
2023/04/15 02:40:38;;;;;;;;;15.00;11.00;20.70;38.50;;;;;;111265;1241;55935;-60
2023/04/15 02:43:06;;;;;;;;;13.00;10.00;20.70;38.30;;;;;;111244;1244;53971;-63
2023/04/15 02:45:33;;;;;;;;;12.67;9.67;20.70;38.50;;;;;;111233;1244;50392;-60
2023/04/15 02:48:04;;;;;;;;;12.33;10.67;20.60;38.20;;;;;;111191;1244;49257;-61
2023/04/15 02:50:32;;;;;;;;;10.00;9.00;20.70;38.30;;;;;;111232;1240;46123;-61
2023/04/15 02:53:00;;;;;;;;;11.50;10.00;20.60;38.40;;;;;;111195;1241;54380;-61
2023/04/15 02:55:27;;;;;;;;;11.25;9.75;20.70;38.30;;;;;;111228;1241;54405;-61
2023/04/15 02:57:54;;;;;;;;;9.75;8.75;20.60;38.20;;;;;;111202;1240;49497;-61
2023/04/15 03:00:24;;;;;;;;;12.00;9.00;20.60;38.20;;;;;;111230;1241;49137;-61
2023/04/15 03:02:55;;;;;;;;;11.00;9.00;20.60;38.20;;;;;;111200;1244;46258;-61
2023/04/15 03:05:24;;;;;;;;;11.00;10.00;20.70;38.30;;;;;;111236;1240;55274;-61
2023/04/15 03:07:51;;;;;;;;;11.75;10.25;20.60;38.20;;;;;;111221;1243;53985;-61
2023/04/15 03:10:19;;;;;;;;;11.00;9.50;20.60;38.20;;;;;;111382;1244;49262;-61
2023/04/15 03:12:47;;;;;;;;;11.00;8.25;20.60;38.20;;;;;;111310;1244;50535;-60
2023/04/15 03:15:14;;;;;;;;;11.33;10.00;20.60;38.20;;;;;;110965;1243;45609;-60
2023/04/15 03:17:41;;;;;;;;;13.00;11.00;20.60;38.70;;;;;;111175;1244;54257;-60
2023/04/15 03:20:09;;;;;;;;;12.00;11.00;20.60;38.20;;;;;;111251;1241;53757;-61
2023/04/15 03:22:36;;;;;;;;;13.25;10.00;20.60;38.20;;;;;;111181;1239;50183;-61
2023/04/15 03:25:03;;;;;;;;;10.75;9.75;20.60;38.20;;;;;;111215;1240;49014;-61
2023/04/15 03:27:30;;;;;;;;;11.00;10.00;20.60;38.20;;;;;;111030;1241;44958;-60
2023/04/15 03:29:57;;;;;;;;;11.00;9.00;20.60;38.20;;;;;;111211;1240;55856;-61
2023/04/15 03:32:26;;;;;;;;;11.00;9.67;20.60;38.20;;;;;;111206;1244;53357;-60
2023/04/15 03:34:53;;;;;;;;;9.00;7.50;20.60;38.20;;;;;;111217;1241;49135;-60
2023/04/15 03:37:19;;;;;;;;;9.75;8.25;20.50;38.60;;;;;;111219;1241;49996;-60
2023/04/15 03:39:47;;;;;;;;;11.50;10.50;20.60;38.20;;;;;;111220;1244;44713;-60
2023/04/15 03:42:14;;;;;;;;;12.67;9.00;20.60;38.20;;;;;;111231;1244;54027;-60
2023/04/15 03:44:41;;;;;;;;;11.75;10.25;20.50;38.20;;;;;;111280;1244;54116;-61
2023/04/15 03:47:08;;;;;;;;;9.75;8.25;20.50;38.40;;;;;;111258;1244;49693;-61
2023/04/15 03:49:36;;;;;;;;;13.50;9.75;20.50;38.20;;;;;;111222;1244;49250;-60
2023/04/15 03:52:03;;;;;;;;;11.00;10.00;20.50;38.20;;;;;;111217;1240;44455;-61
2023/04/15 03:54:30;;;;;;;;;11.00;10.00;20.50;38.20;;;;;;111242;1244;54205;-61
2023/04/15 03:56:57;;;;;;;;;12.00;10.00;20.50;38.40;;;;;;111230;1244;54029;-61
2023/04/15 03:59:24;;;;;;;;;15.50;12.00;20.50;38.20;;;;;;111300;1244;49589;-61
2023/04/15 04:01:51;;;;;;;;;10.00;8.00;20.50;38.20;;;;;;111277;1241;50762;-60
2023/04/15 04:04:18;;;;;;;;;13.25;10.00;20.50;38.20;;;;;;110953;1246;45910;-61
2023/04/15 04:06:45;;;;;;;;;11.25;10.00;20.40;38.20;;;;;;111196;1243;54962;-60
2023/04/15 04:09:12;;;;;;;;;12.67;11.33;20.40;38.40;;;;;;111222;1244;53638;-61
2023/04/15 04:11:39;;;;;;;;;11.67;10.00;20.40;37.70;;;;;;111191;1244;49475;-61
2023/04/15 04:14:06;;;;;;;;;10.50;9.50;20.40;38.20;;;;;;111255;1241;48972;-61
2023/04/15 04:16:33;;;;;;;;;12.00;10.25;20.40;38.20;;;;;;111221;1240;45386;-60
2023/04/15 04:19:00;;;;;;;;;13.00;12.00;20.40;38.20;;;;;;111213;1244;55934;-61
2023/04/15 04:21:27;;;;;;;;;10.67;9.00;20.40;38.20;;;;;;111229;1244;53809;-61
2023/04/15 04:23:55;;;;;;;;;10.75;8.75;20.40;37.90;;;;;;111190;1243;49104;-61
2023/04/15 04:26:22;;;;;;;;;11.00;9.00;20.40;38.40;;;;;;111225;1241;49767;-60
2023/04/15 04:28:50;;;;;;;;;12.00;11.00;20.40;38.20;;;;;;111187;1244;45206;-60
2023/04/15 04:31:17;;;;;;;;;13.00;12.00;20.40;38.20;;;;;;111224;1239;54533;-60
2023/04/15 04:33:44;;;;;;;;;11.00;10.00;20.40;38.50;;;;;;111211;1244;53725;-62
2023/04/15 04:36:11;;;;;;;;;13.00;11.75;20.40;38.30;;;;;;111207;1240;49905;-61
2023/04/15 04:38:38;;;;;;;;;10.75;8.50;20.40;38.50;;;;;;111185;1241;49113;-61
2023/04/15 04:41:05;;;;;;;;;13.75;12.50;20.30;38.20;;;;;;111188;1244;45127;-61
2023/04/15 04:43:32;;;;;;;;;12.67;11.00;20.30;38.20;;;;;;111251;1240;54652;-61
2023/04/15 04:45:59;;;;;;;;;14.50;9.25;20.30;38.30;;;;;;111233;1244;55003;-61
2023/04/15 04:48:26;;;;;;;;;12.33;11.00;20.30;38.30;;;;;;111263;1241;49507;-61
2023/04/15 04:50:53;;;;;;;;;13.25;12.00;20.30;38.30;;;;;;110337;1240;1130105;-60
2023/04/15 04:53:20;;;;;;;;;12.67;11.33;20.30;38.30;;;;;;111243;1244;46070;-61
2023/04/15 04:55:47;;;;;;;;;12.00;10.00;20.30;38.30;;;;;;111252;1244;54941;-61
2023/04/15 04:58:14;;;;;;;;;12.00;10.33;20.30;38.50;;;;;;111200;1241;53501;-61
2023/04/15 05:00:41;;;;;;;;;13.50;12.00;20.30;38.30;;;;;;111233;1244;48975;-61
2023/04/15 05:03:07;;;;;;;;;11.00;8.33;20.30;38.30;;;;;;111210;1240;49237;-61
2023/04/15 05:05:35;;;;;;;;;11.75;10.00;20.30;38.30;;;;;;111298;1243;44913;-61
2023/04/15 05:08:02;;;;;;;;;13.00;11.00;20.30;38.30;;;;;;111207;1244;55609;-60
2023/04/15 05:10:29;;;;;;;;;11.75;10.50;20.30;38.20;;;;;;111264;1244;54022;-60
2023/04/15 05:12:56;;;;;;;;;13.00;11.25;20.30;38.30;;;;;;111212;1243;49715;-60
2023/04/15 05:15:24;;;;;;;;;12.00;10.00;20.20;38.20;;;;;;111232;1244;48912;-60
2023/04/15 05:17:51;;;;;;;;;11.00;9.75;20.30;38.30;;;;;;111221;1241;44815;-60
2023/04/15 05:20:18;;;;;;;;;13.75;10.75;20.30;38.30;;;;;;111249;1243;55790;-60
2023/04/15 05:22:45;;;;;;;;;13.50;10.75;20.30;38.30;;;;;;111189;1244;53738;-60
2023/04/15 05:25:12;;;;;;;;;11.00;9.33;20.20;38.20;;;;;;111236;1244;49582;-60
2023/04/15 05:27:40;;;;;;;;;12.00;10.75;20.20;38.20;;;;;;111221;1241;49271;-60
2023/04/15 05:30:07;;;;;;;;;12.33;11.00;20.30;38.30;;;;;;110968;1241;44714;-60
2023/04/15 05:32:34;;;;;;;;;12.33;10.67;20.20;38.20;;;;;;111235;1240;54360;-60
2023/04/15 05:35:01;;;;;;;;;12.00;11.00;20.20;38.50;;;;;;111214;1244;54294;-60
2023/04/15 05:37:28;;;;;;;;;12.00;10.00;20.20;38.30;;;;;;111224;1244;50702;-60
2023/04/15 05:39:55;;;;;;;;;14.00;11.00;20.20;38.20;;;;;;111203;1243;49847;-60
2023/04/15 05:42:22;;;;;;;;;13.00;12.00;20.20;38.20;;;;;;111255;1245;44764;-61
2023/04/15 05:44:49;;;;;;;;;13.00;12.00;20.20;38.20;;;;;;111239;1244;55564;-60
2023/04/15 05:47:16;;;;;;;;;11.75;9.75;20.20;38.30;;;;;;111223;1241;53289;-60
2023/04/15 05:49:43;;;;;;;;;12.00;11.00;20.20;38.30;;;;;;111259;1244;50494;-60
2023/04/15 05:52:10;;;;;;;;;13.00;11.00;20.20;38.30;;;;;;111206;1244;50176;-60
2023/04/15 05:54:37;;;;;;;;;12.00;11.00;20.20;38.30;;;;;;111229;1241;44971;-60
2023/04/15 05:57:04;;;;;;;;;14.75;11.00;20.20;38.30;;;;;;111183;1239;54551;-60
2023/04/15 05:59:31;;;;;;;;;13.00;11.75;20.20;38.30;;;;;;111272;1243;54207;-63
2023/04/15 06:01:58;;;;;;;;;13.00;11.00;20.20;38.20;;;;;;111188;1241;49832;-61
2023/04/15 06:04:25;;;;;;;;;14.50;11.00;20.20;38.20;;;;;;111211;1241;48936;-61
2023/04/15 06:06:53;;;;;;;;;13.33;11.00;20.20;38.30;;;;;;111327;1239;44382;-59
2023/04/15 06:09:19;;;;;;;;;12.00;11.00;20.20;38.30;;;;;;111226;1239;54653;-60
2023/04/15 06:11:46;;;;;;;;;12.00;10.75;20.20;38.30;;;;;;111211;1244;54663;-62
2023/04/15 06:14:13;;;;;;;;;12.75;11.00;20.20;38.30;;;;;;111214;1241;49095;-62
2023/04/15 06:16:41;;;;;;;;;13.00;10.67;20.20;38.40;;;;;;111227;1243;50248;-61
2023/04/15 06:19:08;;;;;;;;;11.50;10.00;20.20;38.30;;;;;;111194;1239;44877;-61
2023/04/15 06:21:35;;;;;;;;;14.00;9.75;20.20;38.30;;;;;;111200;1243;55515;-60
2023/04/15 06:24:02;;;;;;;;;12.75;11.50;20.20;38.30;;;;;;111276;1244;54042;-61
2023/04/15 06:26:30;;;;;;;;;12.00;10.33;20.20;38.30;;;;;;111181;1239;49220;-60
2023/04/15 06:28:57;;;;;;;;;14.00;13.00;20.20;38.30;;;;;;111218;1244;50157;-60
2023/04/15 06:31:23;;;;;;;;;12.00;10.75;20.20;38.30;;;;;;111279;1241;45247;-60
2023/04/15 06:33:50;;;;;;;;;12.00;10.00;20.20;38.50;;;;;;110956;1246;54861;-61
2023/04/15 06:36:17;;;;;;;;;11.67;10.67;20.20;38.40;;;;;;111254;1244;54180;-61
2023/04/15 06:38:44;;;;;;;;;12.25;10.75;20.20;38.30;;;;;;111185;1244;49445;-61
2023/04/15 06:41:11;;;;;;;;;11.00;10.00;20.30;38.30;;;;;;111237;1241;49212;-62
2023/04/15 06:43:38;;;;;;;;;14.00;12.00;20.30;38.40;;;;;;111260;1241;45317;-61
2023/04/15 06:46:06;;;;;;;;;13.33;10.67;20.30;38.20;;;;;;111207;1240;54436;-61
2023/04/15 06:48:33;;;;;;;;;13.00;11.50;20.30;38.20;;;;;;111212;1244;53831;-61
2023/04/15 06:51:00;;;;;;;;;12.00;10.75;20.40;38.20;;;;;;111326;1241;49046;-62
2023/04/15 06:53:27;;;;;;;;;13.25;12.00;20.40;38.40;;;;;;111003;1242;49124;-62
2023/04/15 06:55:54;;;;;;;;;13.00;12.00;20.40;38.40;;;;;;111283;1240;44401;-61
2023/04/15 06:58:21;;;;;;;;;11.25;10.00;20.30;38.30;;;;;;111200;1241;55885;-61
2023/04/15 07:00:48;;;;;;;;;13.75;11.00;20.30;38.20;;;;;;111193;1239;53561;-61
2023/04/15 07:03:15;;;;;;;;;14.50;12.00;20.40;38.50;;;;;;111221;1239;49204;-61
2023/04/15 07:05:42;;;;;;;;;13.00;12.00;20.40;38.30;;;;;;111014;1241;50392;-61
2023/04/15 07:08:09;;;;;;;;;15.00;14.00;20.40;38.30;;;;;;111176;1239;45417;-61
2023/04/15 07:10:36;;;;;;;;;12.00;11.00;20.40;38.20;;;;;;111183;1241;55322;-60
2023/04/15 07:13:04;;;;;;;;;14.50;12.00;20.40;38.20;;;;;;111169;1244;53771;-60
2023/04/15 07:15:31;;;;;;;;;14.00;12.75;20.40;38.20;;;;;;111229;1240;50949;-60
2023/04/15 07:17:58;;;;;;;;;16.00;11.00;20.40;38.20;;;;;;111223;1245;50389;-62
2023/04/15 07:20:26;;;;;;;;;14.33;11.00;20.40;37.90;;;;;;111201;1241;44569;-60
2023/04/15 07:22:53;;;;;;;;;14.00;13.00;20.40;38.50;;;;;;111334;1244;54607;-60
2023/04/15 07:25:21;;;;;;;;;14.25;12.75;20.40;38.50;;;;;;111190;1241;54018;-60
2023/04/15 07:27:48;;;;;;;;;14.25;11.00;20.40;38.40;;;;;;111173;1244;50684;-60
2023/04/15 07:30:15;;;;;;;;;14.33;11.00;20.50;38.00;;;;;;111213;1240;48823;-60
2023/04/15 07:32:42;;;;;;;;;14.00;12.50;20.50;38.40;;;;;;111235;1243;45963;-61
2023/04/15 07:35:09;;;;;;;;;13.00;12.00;20.50;38.40;;;;;;111293;1239;56077;-60
2023/04/15 07:37:36;;;;;;;;;12.00;10.75;20.50;38.50;;;;;;111230;1241;53422;-60
2023/04/15 07:40:05;;;;;;;;;13.00;12.00;20.60;38.50;;;;;;111198;1244;50251;-61
2023/04/15 07:42:33;;;;;;;;;11.50;9.75;20.60;38.40;;;;;;111305;1244;49334;-61
2023/04/15 07:45:00;;;;;;;;;14.75;13.50;20.70;38.40;;;;;;111037;1241;45791;-61
2023/04/15 07:47:27;;;;;;;;;12.67;11.33;20.70;38.30;;;;;;111190;1242;54670;-61
2023/04/15 07:49:54;;;;;;;;;12.50;11.00;20.80;38.50;;;;;;111195;1243;53457;-61
2023/04/15 07:52:21;;;;;;;;;11.67;10.33;20.80;38.30;;;;;;111347;1240;50081;-61
2023/04/15 07:54:48;;;;;;;;;11.00;9.75;20.90;38.30;;;;;;111349;1245;50357;-61
2023/04/15 07:57:16;;;;;;;;;12.75;11.75;20.90;38.20;;;;;;111295;1244;45227;-62
2023/04/15 07:59:43;;;;;;;;;14.75;13.00;20.90;38.20;;;;;;111256;1244;55774;-61
2023/04/15 08:02:11;;;;;;;;;13.00;12.00;21.00;38.20;;;;;;111236;1241;53805;-61
2023/04/15 08:04:38;;;;;;;;;13.75;10.75;21.00;38.20;;;;;;111267;1244;50571;-62
2023/04/15 08:07:05;;;;;;;;;13.50;11.00;21.00;38.20;;;;;;111208;1244;50168;-61
2023/04/15 08:09:32;;;;;;;;;10.33;9.00;21.00;38.10;;;;;;111239;1241;44744;-61
2023/04/15 08:11:59;;;;;;;;;14.75;11.75;21.00;38.10;;;;;;111201;1244;54372;-60
2023/04/15 08:14:27;;;;;;;;;13.25;10.75;21.00;38.30;;;;;;111250;1244;54589;-60
2023/04/15 08:16:54;;;;;;;;;12.00;10.75;21.10;38.20;;;;;;111301;1244;50376;-60
2023/04/15 08:19:21;;;;;;;;;16.75;12.00;21.10;38.20;;;;;;110961;1241;49207;-60
2023/04/15 08:21:48;;;;;;;;;11.25;9.75;21.10;38.20;;;;;;111168;1240;45264;-59
2023/04/15 08:24:15;;;;;;;;;12.00;10.00;21.10;38.10;;;;;;111175;1240;55210;-60
2023/04/15 08:26:42;;;;;;;;;13.50;10.75;21.10;38.10;;;;;;111179;1244;53822;-61
2023/04/15 08:29:09;;;;;;;;;12.00;10.75;21.10;38.10;;;;;;111173;1239;49112;-59
2023/04/15 08:31:36;;;;;;;;;12.75;11.25;21.10;38.20;;;;;;111232;1240;51460;-60
2023/04/15 08:34:03;;;;;;;;;14.00;9.75;21.10;38.10;;;;;;111269;1244;44863;-60
2023/04/15 08:36:31;;;;;;;;;12.00;10.75;21.10;38.30;;;;;;111333;1244;53946;-60
2023/04/15 08:39:00;;;;;;;;;12.00;10.75;21.10;38.30;;;;;;111207;1239;53999;-60
2023/04/15 08:41:34;;;;;;;;;14.50;11.00;21.20;38.10;;;;;;111231;1244;49011;-61
2023/04/15 08:44:03;;;;;;;;;11.00;10.00;21.20;38.40;;;;;;111063;1241;48885;-60
2023/04/15 08:46:33;;;;;;;;;12.67;11.00;21.20;38.10;;;;;;111290;1244;44760;-60
2023/04/15 08:49:03;;;;;;;;;12.25;9.75;21.20;38.10;;;;;;111223;1239;55632;-61
2023/04/15 08:51:32;;;;;;;;;14.00;11.25;21.30;38.20;;;;;;111276;1244;54266;-61
2023/04/15 08:54:00;;;;;;;;;12.00;10.25;21.30;38.10;;;;;;111223;1241;49966;-61
2023/04/15 08:56:31;;;;;;;;;11.00;9.00;21.30;38.10;;;;;;111287;1239;49992;-60
2023/04/15 08:58:59;;;;;;;;;15.00;12.67;21.30;38.30;;;;;;111269;1241;45248;-61
2023/04/15 09:01:26;;;;;;;;;11.33;9.00;21.40;38.40;;;;;;111281;1240;55017;-60
2023/04/15 09:03:53;;;;;;;;;11.00;9.75;21.40;38.10;;;;;;111203;1243;54213;-61
2023/04/15 09:06:21;;;;;;;;;11.75;9.00;21.50;38.10;;;;;;111245;1244;49458;-61
2023/04/15 09:08:49;;;;;;;;;11.00;10.00;21.60;38.20;;;;;;111214;1244;50028;-61
2023/04/15 09:11:16;;;;;;;;;13.00;10.50;21.60;38.10;;;;;;111236;1240;45947;-61
2023/04/15 09:13:44;;;;;;;;;12.00;9.00;21.70;38.10;;;;;;111278;1245;55932;-61
2023/04/15 09:16:13;;;;;;;;;13.75;11.75;21.70;38.10;;;;;;111265;1240;54525;-60
2023/04/15 09:18:40;;;;;;;;;11.75;10.00;21.70;38.10;;;;;;111225;1241;49743;-61
2023/04/15 09:21:12;;;;;;;;;10.50;9.25;21.80;38.10;;;;;;111245;1242;49425;-64
2023/04/15 09:23:56;;;;;;;;;9.75;8.75;21.80;38.10;;;;;;111262;1245;46152;-62
2023/04/15 09:26:33;;;;;;;;;10.25;9.00;21.90;38.10;;;;;;111290;1243;55584;-61
2023/04/15 09:29:12;;;;;;;;;11.00;10.00;21.90;38.00;;;;;;111277;1244;54794;-60
2023/04/15 09:31:40;;;;;;;;;12.00;10.67;22.00;38.00;;;;;;111074;1244;49711;-61
2023/04/15 09:34:07;;;;;;;;;11.75;10.00;22.10;38.00;;;;;;110993;1241;49666;-61
2023/04/15 09:36:51;;;;;;;;;13.00;11.00;22.20;38.20;;;;;;111570;1240;45106;-60
2023/04/15 09:39:18;;;;;;;;;15.00;12.00;22.20;38.00;;;;;;111203;1244;54296;-62
2023/04/15 09:41:46;;;;;;;;;13.67;11.00;22.30;37.90;;;;;;111206;1240;53300;-62
2023/04/15 09:44:25;;;;;;;;;11.00;10.00;22.40;38.10;;;;;;111160;1240;49617;-61
2023/04/15 09:46:52;;;;;;;;;11.00;9.75;22.50;38.00;;;;;;111227;1241;49690;-60
2023/04/15 09:49:19;;;;;;;;;10.33;9.33;22.50;37.90;;;;;;111227;1241;46073;-60
2023/04/15 09:51:46;;;;;;;;;11.00;9.33;22.50;37.80;;;;;;111253;1244;56096;-61
2023/04/15 09:54:19;;;;;;;;;9.75;8.75;22.60;37.90;;;;;;111193;1241;54305;-60
2023/04/15 09:56:47;;;;;;;;;11.50;9.75;22.70;37.90;;;;;;110964;1244;49720;-60
2023/04/15 09:59:14;;;;;;;;;9.75;8.75;22.70;37.90;;;;;;110977;1244;49800;-60
2023/04/15 10:01:41;;;;;;;;;10.75;9.25;22.80;37.90;;;;;;111223;1239;45406;-60
2023/04/15 10:04:08;;;;;;;;;12.00;9.00;22.80;38.10;;;;;;111202;1240;54922;-61
2023/04/15 10:06:35;;;;;;;;;12.00;11.00;22.80;38.00;;;;;;111255;1245;54456;-60
2023/04/15 10:09:03;;;;;;;;;10.00;9.00;22.90;37.90;;;;;;111029;1244;49543;-60
2023/04/15 10:11:31;;;;;;;;;10.00;9.00;22.90;37.70;;;;;;111042;1247;49462;-65
2023/04/15 10:13:59;;;;;;;;;15.50;14.25;23.00;37.80;;;;;;111229;1242;47047;-60
2023/04/15 10:16:30;;;;;;;;;10.67;9.67;23.00;37.80;;;;;;111014;1247;55628;-61
2023/04/15 10:19:01;;;;;;;;;10.00;9.00;23.10;37.80;;;;;;111230;1241;53925;-61
2023/04/15 10:21:29;;;;;;;;;10.75;8.75;23.10;37.80;;;;;;111219;1244;49741;-61
2023/04/15 10:23:58;;;;;;;;;10.00;8.00;23.20;38.00;;;;;;111023;1247;49542;-60
2023/04/15 10:26:25;;;;;;;;;9.75;8.75;23.30;37.80;;;;;;110991;1244;45482;-61
2023/04/15 10:28:52;;;;;;;;;8.25;7.00;23.30;38.00;;;;;;111198;1244;55721;-60
2023/04/15 10:31:20;;;;;;;;;10.50;9.00;23.40;38.00;;;;;;111014;1241;53772;-60
2023/04/15 10:33:47;;;;;;;;;9.00;8.00;23.40;37.70;;;;;;111033;1241;49271;-60
2023/04/15 10:36:15;;;;;;;;;10.50;9.00;23.50;37.80;;;;;;111242;1241;49742;-60
2023/04/15 10:38:44;;;;;;;;;10.00;8.00;23.50;37.70;;;;;;111019;1246;46918;-60
2023/04/15 10:41:20;;;;;;;;;8.75;7.75;23.60;37.70;;;;;;111189;1241;55401;-60
2023/04/15 10:44:02;;;;;;;;;10.00;8.25;23.60;37.70;;;;;;111212;1244;53713;-60
2023/04/15 10:46:39;;;;;;;;;10.00;9.00;23.70;37.70;;;;;;111291;1244;48978;-61
2023/04/15 10:49:13;;;;;;;;;12.00;11.00;23.70;37.90;;;;;;111221;1240;49409;-60
2023/04/15 10:51:42;;;;;;;;;11.00;9.67;23.80;37.70;;;;;;111057;1241;45759;-61
2023/04/15 10:54:35;;;;;;;;;12.50;10.75;23.80;37.70;;;;;;111015;1241;56006;-61
2023/04/15 10:57:05;;;;;;;;;10.00;8.67;23.90;37.70;;;;;;111122;1239;53920;-60
2023/04/15 10:59:35;;;;;;;;;12.25;11.00;23.90;37.80;;;;;;111217;1244;49650;-60
2023/04/15 11:02:05;;;;;;;;;10.00;9.00;24.00;37.40;;;;;;111221;1244;49822;-59
2023/04/15 11:04:51;;;;;;;;;10.00;9.00;24.00;37.60;;;;;;111054;1241;45274;-60
2023/04/15 11:07:40;;;;;;;;;11.00;9.75;24.10;37.70;;;;;;111239;1244;55849;-60
2023/04/15 11:10:16;;;;;;;;;9.75;8.00;24.10;37.60;;;;;;111236;1244;53322;-59
2023/04/15 11:12:44;;;;;;;;;9.00;8.00;24.20;37.60;;;;;;111249;1240;49467;-60
2023/04/15 11:15:29;;;;;;;;;10.67;9.33;24.20;37.60;;;;;;111214;1241;50295;-61
2023/04/15 11:17:58;;;;;;;;;10.75;9.00;24.20;37.60;;;;;;111028;1242;46506;-61
2023/04/15 11:20:25;;;;;;;;;10.00;8.75;24.20;37.50;;;;;;111206;1241;55078;-60
2023/04/15 11:22:56;;;;;;;;;8.75;7.75;24.30;37.60;;;;;;111215;1243;53577;-60
2023/04/15 11:25:24;;;;;;;;;9.00;8.00;24.30;37.50;;;;;;111213;1244;49803;-60
2023/04/15 11:27:53;;;;;;;;;9.00;8.00;24.30;37.50;;;;;;111377;1240;49620;-60
2023/04/15 11:30:25;;;;;;;;;11.00;9.00;24.40;37.60;;;;;;111219;1241;46192;-60
2023/04/15 11:32:54;;;;;;;;;9.00;7.75;24.40;37.50;;;;;;111202;1243;55685;-60
2023/04/15 11:35:21;;;;;;;;;10.67;9.67;24.40;37.70;;;;;;111274;1244;53849;-60
2023/04/15 11:37:49;;;;;;;;;8.00;7.00;24.40;38.00;;;;;;111181;1243;49321;-60
2023/04/15 11:40:19;;;;;;;;;9.50;8.75;24.40;37.40;;;;;;111260;1241;49175;-62
2023/04/15 11:42:46;;;;;;;;;9.00;8.00;24.40;37.40;;;;;;111012;1247;45327;-60
2023/04/15 11:45:14;;;;;;;;;10.75;10.00;24.40;37.40;;;;;;111235;1241;56555;-60
2023/04/15 11:47:41;;;;;;;;;9.75;8.75;24.40;37.50;;;;;;111211;1241;54432;-60
2023/04/15 11:50:22;;;;;;;;;10.00;9.00;24.40;37.40;;;;;;111185;1244;50418;-60
2023/04/15 11:52:56;;;;;;;;;8.75;7.25;24.50;37.50;;;;;;111194;1241;49591;-60
2023/04/15 11:55:24;;;;;;;;;8.75;7.75;24.50;37.50;;;;;;111208;1244;45990;-60
2023/04/15 11:58:10;;;;;;;;;9.75;8.75;24.50;37.50;;;;;;111254;1244;55646;-60
2023/04/15 12:00:38;;;;;;;;;10.00;8.50;24.50;37.40;;;;;;111217;1244;54571;-61
2023/04/15 12:03:27;;;;;;;;;10.00;9.00;24.50;37.40;;;;;;111282;1239;48713;-60
2023/04/15 12:06:17;;;;;;;;;10.33;9.33;24.50;37.60;;;;;;111261;1244;49835;-62
2023/04/15 12:08:58;;;;;;;;;9.25;8.00;24.50;37.40;;;;;;111211;1244;46243;-59
2023/04/15 12:11:25;;;;;;;;;10.75;9.75;24.50;37.40;;;;;;110991;1244;55865;-60
2023/04/15 12:14:14;;;;;;;;;11.00;8.50;24.50;37.40;;;;;;111184;1241;53541;-61
2023/04/15 12:16:44;;;;;;;;;10.00;8.75;24.50;37.40;;;;;;111016;1244;50115;-61
2023/04/15 12:19:13;;;;;;;;;10.67;9.67;24.50;37.40;;;;;;111308;1244;48751;-61
2023/04/15 12:21:44;;;;;;;;;9.25;8.25;24.50;37.60;;;;;;111284;1240;45924;-60
2023/04/15 12:24:11;;;;;;;;;9.50;8.25;24.60;37.50;;;;;;110994;1244;55199;-60
2023/04/15 12:26:47;;;;;;;;;12.00;9.75;24.50;37.60;;;;;;111287;1244;53838;-60
2023/04/15 12:29:16;;;;;;;;;12.25;8.00;24.50;37.40;;;;;;111208;1240;49365;-61